createdAt,value
2022-09-24T00:00:54.076Z,20.80
2022-09-24T00:03:15.935Z,22.48
2022-09-24T00:05:41.591Z,20.77
2022-09-24T00:08:03.330Z,23.77
2022-09-24T00:10:25.186Z,22.23
2022-09-24T00:12:48.022Z,23.10
2022-09-24T00:15:10.324Z,21.97
2022-09-24T00:17:32.064Z,23.93
2022-09-24T00:19:53.839Z,24.17
2022-09-24T00:22:15.569Z,24.60
2022-09-24T00:24:57.477Z,24.43
2022-09-24T00:27:19.345Z,25.27
2022-09-24T00:29:41.631Z,26.53
2022-09-24T00:32:05.757Z,26.23
2022-09-24T00:34:27.589Z,27.13
2022-09-24T00:36:49.470Z,23.57
2022-09-24T00:39:11.239Z,26.80
2022-09-24T00:41:36.724Z,25.70
2022-09-24T00:44:00.046Z,26.47
2022-09-24T00:46:44.234Z,27.03
2022-09-24T00:49:18.928Z,25.63
2022-09-24T00:51:45.731Z,26.25
2022-09-24T00:54:16.097Z,26.10
2022-09-24T00:56:43.233Z,24.67
2022-09-24T00:59:11.467Z,23.70
2022-09-24T01:01:33.368Z,25.90
2022-09-24T01:03:58.291Z,28.03
2022-09-24T01:06:20.000Z,26.40
2022-09-24T01:08:42.482Z,24.37
2022-09-24T01:11:40.298Z,26.83
2022-09-24T01:14:13.902Z,26.47
2022-09-24T01:16:54.874Z,26.50
2022-09-24T01:19:47.473Z,25.80
2022-09-24T01:22:18.357Z,25.07
2022-09-24T01:25:00.519Z,25.07
2022-09-24T01:27:41.307Z,24.50
2022-09-24T01:30:15.178Z,25.23
2022-09-24T01:32:51.136Z,26.23
2022-09-24T01:35:27.323Z,23.93
2022-09-24T01:37:58.590Z,24.63
2022-09-24T01:40:26.987Z,25.43
2022-09-24T01:42:51.877Z,25.30
2022-09-24T01:45:16.046Z,23.83
2022-09-24T01:47:41.615Z,23.17
2022-09-24T01:50:04.459Z,24.20
2022-09-24T01:52:34.904Z,24.43
2022-09-24T01:55:01.079Z,25.60
2022-09-24T01:57:34.128Z,22.17
2022-09-24T02:00:09.929Z,23.80
2022-09-24T02:02:45.319Z,24.50
2022-09-24T02:05:31.755Z,22.20
2022-09-24T02:08:14.225Z,24.13
2022-09-24T02:10:57.282Z,20.90
2022-09-24T02:13:25.129Z,20.57
2022-09-24T02:15:52.527Z,22.13
2022-09-24T02:18:22.059Z,23.43
2022-09-24T02:20:44.777Z,21.40
2022-09-24T02:23:11.106Z,21.80
2022-09-24T02:25:50.661Z,23.83
2022-09-24T02:28:12.593Z,20.63
2022-09-24T02:30:44.219Z,23.53
2022-09-24T02:33:31.446Z,22.20
2022-09-24T02:35:53.372Z,20.30
2022-09-24T02:38:19.746Z,21.10
2022-09-24T02:40:41.673Z,21.33
2022-09-24T02:43:03.520Z,21.23
2022-09-24T02:45:25.511Z,23.17
2022-09-24T02:47:47.283Z,23.20
2022-09-24T02:50:09.655Z,23.53
2022-09-24T02:52:31.490Z,22.57
2022-09-24T02:54:53.474Z,26.57
2022-09-24T02:57:15.237Z,26.53
2022-09-24T02:59:37.138Z,25.77
2022-09-24T03:01:59.106Z,25.77
2022-09-24T03:04:21.957Z,31.27
2022-09-24T03:06:44.150Z,28.30
2022-09-24T03:09:06.198Z,33.17
2022-09-24T03:11:29.161Z,32.20
2022-09-24T03:13:52.128Z,30.83
2022-09-24T03:16:15.184Z,32.53
2022-09-24T03:18:37.155Z,31.83
2022-09-24T03:21:10.546Z,30.17
2022-09-24T03:23:32.843Z,29.90
2022-09-24T03:25:58.391Z,28.20
2022-09-24T03:28:20.914Z,28.57
2022-09-24T03:31:01.824Z,27.97
2022-09-24T03:33:24.268Z,25.47
2022-09-24T03:35:46.097Z,28.47
2022-09-24T03:38:07.868Z,28.17
2022-09-24T03:40:29.779Z,27.53
2022-09-24T03:42:51.636Z,27.33
2022-09-24T03:45:13.592Z,25.97
2022-09-24T03:47:35.759Z,30.57
2022-09-24T03:49:58.016Z,33.67
2022-09-24T03:52:19.833Z,31.60
2022-09-24T03:54:41.606Z,33.37
2022-09-24T03:57:03.664Z,33.37
2022-09-24T03:59:25.438Z,33.33
2022-09-24T04:01:47.269Z,36.93
2022-09-24T04:04:09.184Z,33.97
2022-09-24T04:06:31.876Z,32.90
2022-09-24T04:08:54.422Z,38.63
2022-09-24T04:11:16.182Z,39.33
2022-09-24T04:13:37.965Z,37.33
2022-09-24T04:16:04.967Z,36.70
2022-09-24T04:18:26.780Z,41.93
2022-09-24T04:20:48.758Z,41.33
2022-09-24T04:23:11.372Z,37.03
2022-09-24T04:25:34.435Z,43.40
2022-09-24T04:28:07.944Z,39.10
2022-09-24T04:30:31.962Z,39.63
2022-09-24T04:32:54.399Z,42.42
2022-09-24T04:35:16.186Z,40.17
2022-09-24T04:37:38.187Z,39.97
2022-09-24T04:39:59.909Z,37.80
2022-09-24T04:42:21.679Z,38.33
2022-09-24T04:44:47.282Z,37.33
2022-09-24T04:47:11.460Z,37.40
2022-09-24T04:49:33.476Z,41.83
2022-09-24T04:51:58.070Z,37.90
2022-09-24T04:56:41.535Z,33.20
2022-09-24T04:59:03.353Z,32.40
2022-09-24T05:01:25.919Z,34.73
2022-09-24T05:03:47.818Z,33.43
2022-09-24T05:06:09.653Z,35.73
2022-09-24T05:08:31.443Z,32.10
2022-09-24T05:10:54.168Z,33.50
2022-09-24T05:13:16.305Z,36.40
2022-09-24T05:15:42.891Z,32.10
2022-09-24T05:18:06.231Z,32.97
2022-09-24T05:20:28.400Z,32.67
2022-09-24T05:22:50.732Z,32.17
2022-09-24T05:25:15.081Z,31.90
2022-09-24T05:27:37.086Z,30.33
2022-09-24T05:30:00.605Z,30.73
2022-09-24T05:32:22.409Z,28.93
2022-09-24T05:34:45.320Z,30.63
2022-09-24T05:37:07.840Z,32.17
2022-09-24T05:39:33.854Z,32.80
2022-09-24T05:41:57.077Z,30.80
2022-09-24T05:44:21.652Z,29.87
2022-09-24T05:49:06.144Z,29.67
2022-09-24T05:51:27.971Z,27.93
2022-09-24T05:53:50.496Z,28.47
2022-09-24T05:56:12.265Z,28.13
2022-09-24T05:58:34.065Z,24.83
2022-09-24T06:00:56.010Z,32.17
2022-09-24T06:03:20.325Z,26.97
2022-09-24T06:05:50.452Z,39.92
2022-09-24T06:08:15.267Z,48.23
2022-09-24T06:10:37.864Z,44.57
2022-09-24T06:12:59.772Z,31.50
2022-09-24T06:15:21.872Z,28.17
2022-09-24T06:17:43.641Z,23.87
2022-09-24T06:20:05.947Z,24.57
2022-09-24T06:22:29.010Z,26.50
2022-09-24T06:24:51.486Z,27.07
2022-09-24T06:27:13.285Z,26.97
2022-09-24T06:29:35.540Z,25.83
2022-09-24T06:31:57.316Z,23.77
2022-09-24T06:34:19.244Z,27.20
2022-09-24T06:36:41.090Z,24.47
2022-09-24T06:39:03.035Z,26.87
2022-09-24T06:41:24.931Z,25.17
2022-09-24T06:43:47.259Z,26.27
2022-09-24T06:46:09.440Z,26.20
2022-09-24T06:48:31.854Z,28.50
2022-09-24T06:50:54.743Z,26.17
2022-09-24T06:53:16.614Z,25.83
2022-09-24T06:55:39.543Z,26.97
2022-09-24T06:58:07.099Z,25.10
2022-09-24T07:00:28.860Z,25.43
2022-09-24T07:02:51.899Z,25.07
2022-09-24T07:05:13.744Z,25.30
2022-09-24T07:07:37.665Z,26.67
2022-09-24T07:10:02.472Z,24.80
2022-09-24T07:12:25.024Z,29.13
2022-09-24T07:14:47.114Z,27.77
2022-09-24T07:17:08.931Z,26.60
2022-09-24T07:19:30.890Z,25.67
2022-09-24T07:21:52.793Z,29.57
2022-09-24T07:24:14.582Z,27.57
2022-09-24T07:26:36.392Z,27.53
2022-09-24T07:28:58.224Z,26.80
2022-09-24T07:31:20.205Z,28.53
2022-09-24T07:33:41.968Z,27.10
2022-09-24T07:36:08.904Z,30.10
2022-09-24T07:38:30.964Z,31.00
2022-09-24T07:40:58.169Z,31.27
2022-09-24T07:43:21.656Z,32.03
2022-09-24T07:45:43.613Z,31.37
2022-09-24T07:48:06.158Z,31.03
2022-09-24T07:50:30.981Z,32.50
2022-09-24T07:52:53.001Z,33.33
2022-09-24T07:55:14.969Z,35.93
2022-09-24T07:57:36.700Z,36.93
2022-09-24T07:59:58.499Z,35.07
2022-09-24T08:02:20.468Z,34.57
2022-09-24T08:04:42.963Z,35.30
2022-09-24T08:07:04.727Z,32.50
2022-09-24T08:09:26.513Z,36.07
2022-09-24T08:11:50.067Z,31.80
2022-09-24T08:14:11.918Z,37.27
2022-09-24T08:16:34.555Z,33.90
2022-09-24T08:18:56.396Z,32.90
2022-09-24T08:21:18.257Z,32.03
2022-09-24T08:23:40.904Z,31.53
2022-09-24T08:26:03.880Z,32.23
2022-09-24T08:28:25.728Z,33.77
2022-09-24T08:30:47.561Z,32.80
2022-09-24T08:33:10.526Z,35.50
2022-09-24T08:35:36.691Z,33.53
2022-09-24T08:38:01.265Z,34.20
2022-09-24T08:43:14.885Z,30.35
2022-09-24T08:46:15.692Z,33.93
2022-09-24T08:48:44.947Z,31.77
2022-09-24T08:51:14.805Z,31.07
2022-09-24T08:54:09.308Z,33.17
2022-09-24T08:56:37.598Z,33.93
2022-09-24T08:59:24.500Z,32.17
2022-09-24T09:01:55.119Z,30.50
2022-09-24T09:04:33.688Z,32.07
2022-09-24T09:07:29.703Z,31.53
2022-09-24T09:10:00.620Z,30.47
2022-09-24T09:12:35.776Z,32.23
2022-09-24T09:15:13.393Z,32.73
2022-09-24T09:17:54.804Z,30.33
2022-09-24T09:20:27.538Z,27.77
2022-09-24T09:22:53.393Z,30.33
2022-09-24T09:25:26.119Z,31.07
2022-09-24T09:27:56.976Z,27.70
2022-09-24T09:30:21.804Z,30.10
2022-09-24T09:33:25.385Z,30.00
2022-09-24T09:36:24.153Z,30.00
2022-09-24T09:39:10.400Z,30.10
2022-09-24T09:41:45.147Z,29.77
2022-09-24T09:44:42.436Z,29.08
2022-09-24T09:47:26.178Z,29.37
2022-09-24T09:49:52.683Z,26.47
2022-09-24T09:52:27.119Z,29.77
2022-09-24T09:54:49.285Z,27.27
2022-09-24T09:57:21.662Z,26.43
2022-09-24T09:59:49.249Z,31.00
2022-09-24T10:02:23.065Z,26.80
2022-09-24T10:04:45.482Z,29.60
2022-09-24T10:07:15.171Z,28.10
2022-09-24T10:09:38.630Z,24.07
2022-09-24T10:12:09.581Z,28.67
2022-09-24T10:14:31.455Z,27.37
2022-09-24T10:16:55.805Z,27.00
2022-09-24T10:19:24.740Z,26.80
2022-09-24T10:21:47.081Z,28.47
2022-09-24T10:24:20.247Z,26.40
2022-09-24T10:26:45.825Z,29.67
2022-09-24T10:29:37.250Z,25.87
2022-09-24T10:31:59.733Z,31.73
2022-09-24T10:34:28.377Z,29.23
2022-09-24T10:36:53.453Z,27.07
2022-09-24T10:39:16.178Z,26.63
2022-09-24T10:41:45.300Z,28.43
2022-09-24T10:44:11.996Z,31.13
2022-09-24T10:47:08.132Z,28.57
2022-09-24T10:50:10.277Z,26.10
2022-09-24T10:52:53.820Z,27.83
2022-09-24T10:55:25.031Z,26.83
2022-09-24T10:57:52.659Z,29.43
2022-09-24T11:00:30.094Z,27.73
2022-09-24T11:03:10.209Z,25.83
2022-09-24T11:05:59.060Z,27.70
2022-09-24T11:08:59.610Z,26.37
2022-09-24T11:12:06.514Z,27.63
2022-09-24T11:14:40.947Z,26.40
2022-09-24T11:17:21.137Z,30.38
2022-09-24T11:20:11.025Z,28.30
2022-09-24T11:22:57.354Z,26.23
2022-09-24T11:25:22.430Z,27.57
2022-09-24T11:28:17.573Z,29.87
2022-09-24T11:31:08.862Z,27.58
2022-09-24T11:34:06.164Z,25.20
2022-09-24T11:36:49.177Z,29.57
2022-09-24T11:40:04.590Z,28.57
2022-09-24T11:42:37.904Z,28.97
2022-09-24T11:45:27.408Z,28.40
2022-09-24T11:48:26.398Z,28.60
2022-09-24T11:51:14.178Z,26.30
2022-09-24T11:54:21.177Z,27.77
2022-09-24T11:56:52.067Z,24.97
2022-09-24T11:59:22.913Z,25.87
2022-09-24T12:01:55.422Z,25.87
2022-09-24T12:04:42.213Z,26.60
2022-09-24T12:07:16.734Z,27.50
2022-09-24T12:10:06.390Z,26.58
2022-09-24T12:12:38.280Z,29.10
2022-09-24T12:15:24.034Z,28.00
2022-09-24T12:17:59.376Z,27.77
2022-09-24T12:20:28.481Z,31.43
2022-09-24T12:23:00.080Z,28.10
2022-09-24T12:25:22.068Z,25.17
2022-09-24T12:27:46.152Z,27.63
2022-09-24T12:31:07.395Z,29.30
2022-09-24T12:33:57.143Z,26.03
2022-09-24T12:36:37.379Z,28.60
2022-09-24T12:39:17.678Z,27.97
2022-09-24T12:41:47.578Z,28.50
2022-09-24T12:44:42.187Z,28.70
2022-09-24T12:47:04.856Z,27.23
2022-09-24T12:49:32.505Z,29.43
2022-09-24T12:51:58.544Z,30.07
2022-09-24T12:54:39.417Z,28.20
2022-09-24T12:57:25.707Z,29.07
2022-09-24T13:00:00.929Z,26.00
2022-09-24T13:02:45.359Z,27.50
2022-09-24T13:05:22.577Z,27.15
2022-09-24T13:08:01.201Z,29.20
2022-09-24T13:10:36.463Z,26.37
2022-09-24T13:13:00.661Z,27.90
2022-09-24T13:15:42.033Z,24.55
2022-09-24T13:18:11.178Z,29.57
2022-09-24T13:20:36.214Z,26.67
2022-09-24T13:23:11.283Z,26.17
2022-09-24T13:28:03.676Z,24.17
2022-09-24T13:30:38.583Z,22.40
2022-09-24T13:36:07.610Z,23.63
2022-09-24T13:38:37.516Z,25.73
2022-09-24T13:41:16.575Z,24.83
2022-09-24T13:43:59.958Z,26.87
2022-09-24T13:46:23.799Z,27.10
2022-09-24T13:48:55.144Z,23.53
2022-09-24T13:51:24.826Z,23.20
2022-09-24T13:53:53.003Z,23.60
2022-09-24T13:56:19.145Z,23.07
2022-09-24T13:58:43.119Z,22.90
2022-09-24T14:01:19.340Z,22.40
2022-09-24T14:03:42.883Z,22.97
2022-09-24T14:06:21.805Z,22.27
2022-09-24T14:08:46.896Z,22.97
2022-09-24T14:11:19.401Z,23.43
2022-09-24T14:13:47.251Z,26.03
2022-09-24T14:16:21.534Z,23.43
2022-09-24T14:18:43.446Z,27.58
2022-09-24T14:21:10.466Z,25.90
2022-09-24T14:24:00.060Z,27.63
2022-09-24T14:26:38.626Z,28.30
2022-09-24T14:29:11.804Z,26.37
2022-09-24T14:31:45.239Z,29.67
2022-09-24T14:34:07.236Z,28.67
2022-09-24T14:36:29.320Z,28.03
2022-09-24T14:39:05.792Z,28.63
2022-09-24T14:41:36.158Z,31.53
2022-09-24T14:44:07.871Z,29.80
2022-09-24T14:46:48.760Z,31.73
2022-09-24T14:49:27.114Z,31.03
2022-09-24T14:51:59.091Z,34.03
2022-09-24T14:54:40.197Z,28.37
2022-09-24T14:57:17.313Z,27.50
2022-09-24T14:59:41.748Z,24.77
2022-09-24T15:02:21.407Z,22.20
2022-09-24T15:04:51.494Z,28.37
2022-09-24T15:07:28.271Z,22.80
2022-09-24T15:09:57.269Z,34.27
2022-09-24T15:12:30.740Z,36.93
2022-09-24T15:15:19.558Z,32.53
2022-09-24T15:17:41.458Z,39.10
2022-09-24T15:20:04.886Z,27.90
2022-09-24T15:22:28.988Z,31.63
2022-09-24T15:24:50.778Z,32.22
2022-09-24T15:27:17.984Z,24.20
2022-09-24T15:29:39.749Z,29.13
2022-09-24T15:32:02.385Z,27.00
2022-09-24T15:34:24.714Z,17.23
2022-09-24T15:36:56.832Z,17.07
2022-09-24T15:39:19.272Z,22.77
2022-09-24T15:41:41.088Z,22.43
2022-09-24T15:44:02.910Z,28.77
2022-09-24T15:46:26.564Z,20.57
2022-09-24T15:48:48.418Z,17.50
2022-09-24T15:51:15.433Z,17.47
2022-09-24T15:53:37.564Z,18.20
2022-09-24T15:56:02.549Z,17.70
2022-09-24T15:58:25.338Z,14.27
2022-09-24T16:00:47.984Z,11.70
2022-09-24T16:03:19.468Z,12.57
2022-09-24T16:05:59.362Z,11.73
2022-09-24T16:08:22.147Z,10.70
2022-09-24T16:10:45.280Z,10.93
2022-09-24T16:13:08.048Z,11.20
2022-09-24T16:15:29.836Z,10.07
2022-09-24T16:17:51.738Z,9.37
2022-09-24T16:20:13.536Z,10.83
2022-09-24T16:22:35.472Z,11.17
2022-09-24T16:24:57.373Z,11.53
2022-09-24T16:27:19.223Z,11.23
2022-09-24T16:29:41.045Z,11.63
2022-09-24T16:32:03.449Z,12.63
2022-09-24T16:34:26.011Z,16.53
2022-09-24T16:36:47.921Z,27.93
2022-09-24T16:39:09.807Z,24.23
2022-09-24T16:41:34.421Z,21.93
2022-09-24T16:43:56.917Z,21.07
2022-09-24T16:46:20.844Z,16.40
2022-09-24T16:48:44.336Z,11.63
2022-09-24T16:51:11.748Z,10.23
2022-09-24T16:53:34.924Z,13.83
2022-09-24T16:56:11.263Z,32.40
2022-09-24T16:58:33.316Z,40.33
2022-09-24T17:00:55.061Z,49.43
2022-09-24T17:03:17.079Z,30.17
2022-09-24T17:05:40.678Z,18.53
2022-09-24T17:08:02.462Z,14.67
2022-09-24T17:10:24.336Z,11.80
2022-09-24T17:12:50.015Z,10.83
2022-09-24T17:15:14.768Z,8.80
2022-09-24T17:17:43.081Z,10.50
2022-09-24T17:20:10.976Z,9.20
2022-09-24T17:22:32.865Z,8.27
2022-09-24T17:24:54.724Z,9.87
2022-09-24T17:27:16.497Z,8.20
2022-09-24T17:29:38.344Z,9.80
2022-09-24T17:32:00.416Z,9.30
2022-09-24T17:34:22.220Z,8.70
2022-09-24T17:36:44.325Z,9.77
2022-09-24T17:39:06.602Z,9.83
2022-09-24T17:41:30.530Z,11.03
2022-09-24T17:43:52.762Z,11.38
2022-09-24T17:46:24.026Z,11.47
2022-09-24T17:48:47.884Z,12.23
2022-09-24T17:51:14.784Z,12.18
2022-09-24T17:53:37.881Z,14.10
2022-09-24T17:56:00.252Z,15.30
2022-09-24T17:58:22.571Z,14.67
2022-09-24T18:00:45.763Z,12.37
2022-09-24T18:03:07.812Z,12.57
2022-09-24T18:05:29.683Z,11.20
2022-09-24T18:07:51.530Z,12.70
2022-09-24T18:10:13.362Z,13.70
2022-09-24T18:12:35.159Z,12.60
2022-09-24T18:14:56.982Z,12.50
2022-09-24T18:17:18.881Z,13.97
2022-09-24T18:19:40.863Z,11.93
2022-09-24T18:22:03.622Z,14.37
2022-09-24T18:24:25.445Z,11.27
2022-09-24T18:26:51.346Z,11.27
2022-09-24T18:29:16.984Z,13.57
2022-09-24T18:31:39.432Z,12.67
2022-09-24T18:34:05.919Z,11.30
2022-09-24T18:36:27.788Z,12.97
2022-09-24T18:38:49.880Z,10.80
2022-09-24T18:41:16.616Z,10.53
2022-09-24T18:43:41.514Z,11.90
2022-09-24T18:46:07.360Z,8.03
2022-09-24T18:48:29.177Z,10.57
2022-09-24T18:50:51.009Z,14.67
2022-09-24T18:53:12.754Z,8.83
2022-09-24T18:55:40.633Z,12.03
2022-09-24T18:58:03.060Z,10.40
2022-09-24T19:00:43.466Z,11.03
2022-09-24T19:03:05.353Z,10.47
2022-09-24T19:05:29.665Z,8.63
2022-09-24T19:07:51.485Z,10.98
2022-09-24T19:10:13.360Z,11.43
2022-09-24T19:12:38.789Z,7.27
2022-09-24T19:15:00.579Z,8.57
2022-09-24T19:17:22.321Z,10.33
2022-09-24T19:19:51.536Z,5.37
2022-09-24T19:22:14.306Z,5.53
2022-09-24T19:24:36.206Z,6.83
2022-09-24T19:26:57.931Z,7.07
2022-09-24T19:29:19.838Z,8.37
2022-09-24T19:31:45.677Z,7.63
2022-09-24T19:34:12.322Z,6.33
2022-09-24T19:36:44.975Z,6.87
2022-09-24T19:39:12.755Z,6.17
2022-09-24T19:41:34.787Z,7.93
2022-09-24T19:44:03.224Z,6.83
2022-09-24T19:46:29.009Z,5.13
2022-09-24T19:48:52.962Z,8.10
2022-09-24T19:51:33.293Z,5.63
2022-09-24T19:53:58.587Z,7.70
2022-09-24T19:56:23.888Z,6.83
2022-09-24T19:58:52.497Z,9.43
2022-09-24T20:01:17.310Z,4.50
2022-09-24T20:03:40.510Z,7.33
2022-09-24T20:06:13.957Z,5.07
2022-09-24T20:08:36.485Z,6.20
2022-09-24T20:11:05.251Z,7.63
2022-09-24T20:13:27.086Z,5.07
2022-09-24T20:15:59.363Z,7.20
2022-09-24T20:18:21.641Z,6.40
2022-09-24T20:20:43.405Z,5.33
2022-09-24T20:23:08.379Z,9.70
2022-09-24T20:25:49.215Z,7.07
2022-09-24T20:28:16.503Z,6.83
2022-09-24T20:30:38.491Z,7.93
2022-09-24T20:33:00.316Z,6.90
2022-09-24T20:35:22.125Z,8.07
2022-09-24T20:37:44.776Z,9.33
2022-09-24T20:40:09.241Z,6.27
2022-09-24T20:42:31.162Z,3.45
2022-09-24T20:44:53.489Z,6.00
2022-09-24T20:47:15.633Z,7.77
2022-09-24T20:49:37.501Z,7.10
2022-09-24T20:51:59.976Z,9.53
2022-09-24T20:54:22.997Z,5.63
2022-09-24T20:56:45.448Z,5.67
2022-09-24T20:59:07.557Z,7.93
2022-09-24T21:01:29.377Z,7.80
2022-09-24T21:03:52.099Z,11.83
2022-09-24T21:06:15.337Z,14.37
2022-09-24T21:08:43.423Z,16.53
2022-09-24T21:11:08.897Z,14.67
2022-09-24T21:13:33.114Z,14.40
2022-09-24T21:16:05.803Z,10.07
2022-09-24T21:18:35.805Z,9.27
2022-09-24T21:21:15.435Z,7.97
2022-09-24T21:23:39.602Z,6.90
2022-09-24T21:26:25.200Z,7.47
2022-09-24T21:28:53.898Z,7.40
2022-09-24T21:31:18.948Z,11.57
2022-09-24T21:33:46.724Z,8.87
2022-09-24T21:36:08.629Z,13.73
2022-09-24T21:38:31.289Z,8.20
2022-09-24T21:40:57.769Z,9.57
2022-09-24T21:43:25.243Z,10.27
2022-09-24T21:45:47.100Z,9.43
2022-09-24T21:48:09.111Z,7.63
2022-09-24T21:50:31.789Z,11.70
2022-09-24T21:52:53.941Z,15.97
2022-09-24T21:55:15.755Z,18.40
2022-09-24T21:57:37.602Z,14.27
2022-09-24T21:59:59.379Z,12.87
2022-09-24T22:02:21.274Z,11.37
2022-09-24T22:04:44.352Z,9.60
2022-09-24T22:07:06.306Z,8.27
2022-09-24T22:09:29.290Z,10.50
2022-09-24T22:11:52.614Z,6.10
2022-09-24T22:14:14.789Z,8.77
2022-09-24T22:16:36.736Z,7.63
2022-09-24T22:18:59.434Z,13.50
2022-09-24T22:21:21.733Z,9.73
2022-09-24T22:23:43.556Z,6.87
2022-09-24T22:26:07.258Z,11.30
2022-09-24T22:28:29.111Z,8.70
2022-09-24T22:30:53.382Z,9.60
2022-09-24T22:33:35.214Z,9.50
2022-09-24T22:35:57.542Z,8.00
2022-09-24T22:38:19.468Z,5.43
2022-09-24T22:40:41.452Z,7.97
2022-09-24T22:43:03.455Z,8.83
2022-09-24T22:45:25.221Z,7.23
2022-09-24T22:47:47.594Z,7.27
2022-09-24T22:50:10.123Z,9.70
2022-09-24T22:52:32.133Z,7.87
2022-09-24T22:54:53.975Z,7.27
2022-09-24T22:57:15.896Z,8.50
2022-09-24T22:59:37.698Z,9.07
2022-09-24T23:01:59.544Z,6.63
2022-09-24T23:04:21.487Z,7.07
2022-09-24T23:06:44.138Z,5.27
2022-09-24T23:09:06.392Z,11.17
2022-09-24T23:11:32.294Z,8.00
2022-09-24T23:14:13.774Z,6.17
2022-09-24T23:16:37.750Z,5.47
2022-09-24T23:19:02.667Z,9.68
2022-09-24T23:21:28.414Z,9.00
2022-09-24T23:23:56.439Z,6.90
2022-09-24T23:26:20.298Z,5.40
2022-09-24T23:28:42.143Z,7.63
2022-09-24T23:31:04.927Z,7.97
2022-09-24T23:33:29.676Z,5.17
2022-09-24T23:40:38.600Z,8.63
2022-09-24T23:43:00.427Z,10.53
2022-09-24T23:45:22.241Z,5.20
2022-09-24T23:47:44.002Z,6.03
2022-09-24T23:50:06.812Z,7.27
2022-09-24T23:52:28.568Z,11.27
2022-09-24T23:54:50.327Z,7.77
2022-09-24T23:57:12.085Z,7.17
2022-09-24T23:59:34.560Z,7.77
